Time;durP1;ratioP1;P1;durP2;ratioP2;P2;SDS_P1;SDS_P2;PMS_P1;PMS_P2;Temp;Humidity;BMP_temperature;BMP_pressure;BME280_temperature;BME280_humidity;BME280_pressure;Samples;Min_cycle;Max_cycle;Signal;HPM_P1;HPM_P2
2023/08/08 00:02:27;;;;;;;;;;;20.20;88.60;;;;;;7398300;19;19939;-76
2023/08/08 00:04:55;;;;;;;;;;;20.10;88.70;;;;;;7378502;19;19911;-75
2023/08/08 00:07:24;;;;;;;;;;;20.20;89.10;;;;;;7370025;19;19920;-75
2023/08/08 00:09:52;;;;;;;;;;;20.10;88.80;;;;;;7371652;19;19919;-75
2023/08/08 00:12:21;;;;;;;;;;;20.20;88.90;;;;;;7377981;19;20030;-75
2023/08/08 00:14:49;;;;;;;;;;;20.20;89.20;;;;;;7376784;19;19907;-76
2023/08/08 00:17:18;;;;;;;;;;;20.20;89.30;;;;;;7399716;19;19922;-75
2023/08/08 00:22:44;;;;;;;;;;;20.20;89.40;;;;;;7377364;19;19915;-75
2023/08/08 00:25:13;;;;;;;;;;;20.20;89.70;;;;;;7378318;19;19914;-75
2023/08/08 00:27:43;;;;;;;;;;;20.20;89.60;;;;;;7376411;19;19942;-73
2023/08/08 00:30:15;;;;;;;;;;;20.20;90.10;;;;;;7379014;19;19907;-74
2023/08/08 00:32:43;;;;;;;;;;;20.20;89.40;;;;;;7383271;19;19914;-75
2023/08/08 00:35:12;;;;;;;;;;;20.20;89.50;;;;;;7398030;19;20609;-75
2023/08/08 00:37:40;;;;;;;;;;;20.20;89.40;;;;;;7376208;19;19911;-76
2023/08/08 00:40:12;;;;;;;;;;;20.20;89.50;;;;;;7376166;19;19972;-75
2023/08/08 00:42:40;;;;;;;;;;;20.10;89.70;;;;;;7377458;19;20238;-77
2023/08/08 00:45:09;;;;;;;;;;;20.10;90.00;;;;;;7381090;19;19919;-76
2023/08/08 00:47:38;;;;;;;;;;;20.10;90.10;;;;;;7375195;19;19916;-76
2023/08/08 00:50:07;;;;;;;;;;;20.10;90.10;;;;;;7400692;19;19915;-76
2023/08/08 00:52:36;;;;;;;;;;;20.10;90.10;;;;;;7375520;19;20215;-76
2023/08/08 00:55:04;;;;;;;;;;;20.10;90.00;;;;;;7377109;19;19907;-75
2023/08/08 00:57:38;;;;;;;;;;;20.10;89.80;;;;;;7376536;19;20227;-75
2023/08/08 01:00:09;;;;;;;;;;;20.00;89.80;;;;;;7376723;19;19914;-76
2023/08/08 01:02:37;;;;;;;;;;;20.00;90.00;;;;;;7381475;19;19915;-76
2023/08/08 01:05:07;;;;;;;;;;;20.00;90.00;;;;;;7398606;19;19907;-77
2023/08/08 01:07:39;;;;;;;;;;;20.00;89.80;;;;;;7373334;19;20219;-76
2023/08/08 01:10:09;;;;;;;;;;;20.00;89.70;;;;;;7395292;19;19914;-75
2023/08/08 01:12:42;;;;;;;;;;;20.00;90.00;;;;;;7388566;19;19906;-75
2023/08/08 01:15:11;;;;;;;;;;;19.90;89.90;;;;;;7386754;19;19919;-74
2023/08/08 01:17:41;;;;;;;;;;;19.90;90.00;;;;;;7377779;19;19919;-75
2023/08/08 01:20:10;;;;;;;;;;;19.90;90.20;;;;;;7397324;19;19978;-75
2023/08/08 01:22:39;;;;;;;;;;;19.90;90.20;;;;;;7376606;19;20223;-75
2023/08/08 01:25:11;;;;;;;;;;;19.90;90.20;;;;;;7375411;19;20032;-76
2023/08/08 01:27:39;;;;;;;;;;;19.90;90.20;;;;;;7382154;19;19915;-75
2023/08/08 01:30:11;;;;;;;;;;;20.00;90.20;;;;;;7378346;19;20140;-75
2023/08/08 01:32:39;;;;;;;;;;;20.00;90.10;;;;;;7378775;19;19921;-75
2023/08/08 01:35:09;;;;;;;;;;;20.00;90.10;;;;;;7398751;19;20266;-75
2023/08/08 01:37:39;;;;;;;;;;;19.90;90.10;;;;;;7373748;19;19920;-76
2023/08/08 01:40:09;;;;;;;;;;;19.90;90.20;;;;;;7374717;19;20157;-76
2023/08/08 01:42:40;;;;;;;;;;;19.80;90.30;;;;;;7375545;19;19938;-76
2023/08/08 01:45:09;;;;;;;;;;;19.80;90.50;;;;;;7379945;19;19928;-76
2023/08/08 01:47:38;;;;;;;;;;;19.80;90.60;;;;;;7373220;19;19914;-74
2023/08/08 01:50:07;;;;;;;;;;;19.70;90.60;;;;;;7408557;19;19911;-75
2023/08/08 01:52:35;;;;;;;;;;;19.70;90.70;;;;;;7377682;19;19911;-75
2023/08/08 01:55:04;;;;;;;;;;;19.60;90.70;;;;;;7378888;19;19974;-76
2023/08/08 01:57:33;;;;;;;;;;;19.60;90.70;;;;;;7379755;19;19954;-75
2023/08/08 02:00:05;;;;;;;;;;;19.60;90.80;;;;;;7385346;19;19935;-75
2023/08/08 02:02:35;;;;;;;;;;;19.60;90.90;;;;;;7388037;19;19911;-75
2023/08/08 02:05:03;;;;;;;;;;;19.70;91.00;;;;;;7408808;19;20145;-76
2023/08/08 02:07:32;;;;;;;;;;;19.70;91.00;;;;;;7385918;19;19967;-76
2023/08/08 02:10:00;;;;;;;;;;;19.70;91.00;;;;;;7387770;19;19937;-76
2023/08/08 02:12:30;;;;;;;;;;;19.70;91.00;;;;;;7383448;19;19928;-76
2023/08/08 02:14:58;;;;;;;;;;;19.70;91.00;;;;;;7381475;19;19963;-75
2023/08/08 02:17:29;;;;;;;;;;;19.70;91.00;;;;;;7400501;19;19914;-76
2023/08/08 02:19:58;;;;;;;;;;;19.70;91.00;;;;;;7380184;19;19962;-76
2023/08/08 02:22:26;;;;;;;;;;;19.70;91.00;;;;;;7380082;19;19932;-77
2023/08/08 02:24:55;;;;;;;;;;;19.70;90.90;;;;;;7380375;19;19903;-75
2023/08/08 02:27:23;;;;;;;;;;;19.70;90.80;;;;;;7380737;19;19925;-75
2023/08/08 02:29:52;;;;;;;;;;;19.70;90.90;;;;;;7380741;19;19924;-75
2023/08/08 02:32:20;;;;;;;;;;;19.80;90.90;;;;;;7401037;19;19946;-76
2023/08/08 02:34:51;;;;;;;;;;;19.80;91.00;;;;;;7379309;19;20293;-77
2023/08/08 02:37:20;;;;;;;;;;;19.80;90.90;;;;;;7380095;19;19939;-77
2023/08/08 02:39:48;;;;;;;;;;;19.80;90.90;;;;;;7380550;19;19916;-75
2023/08/08 02:42:17;;;;;;;;;;;19.70;90.80;;;;;;7380768;19;19906;-76
2023/08/08 02:44:46;;;;;;;;;;;19.70;90.70;;;;;;7380601;19;19949;-76
2023/08/08 02:47:15;;;;;;;;;;;19.70;90.80;;;;;;7400509;19;20009;-75
2023/08/08 02:49:43;;;;;;;;;;;19.60;90.90;;;;;;7377285;19;19910;-76
2023/08/08 02:52:14;;;;;;;;;;;19.60;91.00;;;;;;7380639;19;19936;-76
2023/08/08 02:54:44;;;;;;;;;;;19.70;91.10;;;;;;7381177;19;19903;-76
2023/08/08 02:57:13;;;;;;;;;;;19.70;91.10;;;;;;7381301;19;19915;-74
2023/08/08 02:59:42;;;;;;;;;;;19.70;91.10;;;;;;7381142;19;19911;-75
2023/08/08 03:02:10;;;;;;;;;;;19.70;91.10;;;;;;7401706;19;20215;-75
2023/08/08 03:04:39;;;;;;;;;;;19.70;91.10;;;;;;7378931;19;20195;-74
2023/08/08 03:07:07;;;;;;;;;;;19.70;91.10;;;;;;7377940;19;19928;-74
2023/08/08 03:09:38;;;;;;;;;;;19.70;91.20;;;;;;7379638;19;19907;-74
2023/08/08 03:12:07;;;;;;;;;;;19.70;91.30;;;;;;7379828;19;19986;-75
2023/08/08 03:14:36;;;;;;;;;;;19.70;91.30;;;;;;7379283;19;19948;-75
2023/08/08 03:17:04;;;;;;;;;;;19.70;91.30;;;;;;7398384;19;19911;-76
2023/08/08 03:19:33;;;;;;;;;;;19.70;91.30;;;;;;7378682;19;19914;-75
2023/08/08 03:22:01;;;;;;;;;;;19.70;91.50;;;;;;7379256;19;19959;-75
2023/08/08 03:24:30;;;;;;;;;;;19.70;91.40;;;;;;7378039;19;19982;-75
2023/08/08 03:27:01;;;;;;;;;;;19.60;91.40;;;;;;7379103;19;19907;-76
2023/08/08 03:29:29;;;;;;;;;;;19.60;91.60;;;;;;7401106;19;19940;-75
2023/08/08 03:31:58;;;;;;;;;;;19.60;91.70;;;;;;7377682;19;19928;-76
2023/08/08 03:34:26;;;;;;;;;;;19.60;91.90;;;;;;7378372;19;19924;-76
2023/08/08 03:36:57;;;;;;;;;;;19.60;91.90;;;;;;7379224;19;19916;-76
2023/08/08 03:39:27;;;;;;;;;;;19.60;91.80;;;;;;7378715;19;19907;-76
2023/08/08 03:41:56;;;;;;;;;;;19.60;91.90;;;;;;7379381;19;20002;-76
2023/08/08 03:44:29;;;;;;;;;;;19.60;92.00;;;;;;7400552;19;19928;-76
2023/08/08 03:46:58;;;;;;;;;;;19.60;92.00;;;;;;7384791;19;19911;-76
2023/08/08 03:49:26;;;;;;;;;;;19.50;91.90;;;;;;7384869;19;20256;-76
2023/08/08 03:51:55;;;;;;;;;;;19.50;92.00;;;;;;7385919;19;19914;-76
2023/08/08 03:54:23;;;;;;;;;;;19.50;92.00;;;;;;7385573;19;20173;-76
2023/08/08 03:56:51;;;;;;;;;;;19.50;91.90;;;;;;7383189;19;19946;-75
2023/08/08 03:59:20;;;;;;;;;;;19.50;91.90;;;;;;7405017;19;20203;-75
2023/08/08 04:01:51;;;;;;;;;;;19.50;91.90;;;;;;7384767;19;20585;-75
2023/08/08 04:04:19;;;;;;;;;;;19.40;91.90;;;;;;7384538;19;19920;-76
2023/08/08 04:06:50;;;;;;;;;;;19.50;92.10;;;;;;7385036;19;20239;-75
2023/08/08 04:09:19;;;;;;;;;;;19.40;92.00;;;;;;7385701;19;19931;-76
2023/08/08 04:11:47;;;;;;;;;;;19.50;92.00;;;;;;7385855;19;19911;-76
2023/08/08 04:14:16;;;;;;;;;;;19.50;92.00;;;;;;7410322;19;20183;-75
2023/08/08 04:16:44;;;;;;;;;;;19.40;92.00;;;;;;7389063;19;19919;-76
2023/08/08 04:19:15;;;;;;;;;;;19.40;92.10;;;;;;7388592;19;19928;-76
2023/08/08 04:21:44;;;;;;;;;;;19.40;92.10;;;;;;7390295;19;19935;-75
2023/08/08 04:24:12;;;;;;;;;;;19.40;92.20;;;;;;7389767;19;19907;-75
2023/08/08 04:26:41;;;;;;;;;;;19.40;92.20;;;;;;7385854;19;19938;-75
2023/08/08 04:29:09;;;;;;;;;;;19.40;92.20;;;;;;7406675;19;19963;-76
2023/08/08 04:31:38;;;;;;;;;;;19.40;92.30;;;;;;7383745;19;19928;-76
2023/08/08 04:34:06;;;;;;;;;;;19.40;92.30;;;;;;7384694;19;19907;-75
2023/08/08 04:36:37;;;;;;;;;;;19.40;92.30;;;;;;7384633;19;19938;-75
2023/08/08 04:39:05;;;;;;;;;;;19.40;92.40;;;;;;7385298;19;19962;-74
2023/08/08 04:41:34;;;;;;;;;;;19.30;92.20;;;;;;7384248;19;19911;-75
2023/08/08 04:44:02;;;;;;;;;;;19.30;92.10;;;;;;7406291;19;19914;-75
2023/08/08 04:46:31;;;;;;;;;;;19.30;92.00;;;;;;7383235;19;19920;-75
2023/08/08 04:48:59;;;;;;;;;;;19.20;92.00;;;;;;7382563;19;19924;-75
2023/08/08 04:51:28;;;;;;;;;;;19.20;92.00;;;;;;7383907;19;19967;-75
2023/08/08 04:53:59;;;;;;;;;;;19.30;92.00;;;;;;7381989;19;19907;-75
2023/08/08 04:56:28;;;;;;;;;;;19.20;91.80;;;;;;7404565;19;19928;-76
2023/08/08 04:58:56;;;;;;;;;;;19.20;91.80;;;;;;7383097;19;20134;-76
2023/08/08 05:01:25;;;;;;;;;;;19.20;91.90;;;;;;7383434;19;19915;-76
2023/08/08 05:03:53;;;;;;;;;;;19.20;92.00;;;;;;7384034;19;19907;-76
2023/08/08 05:06:22;;;;;;;;;;;19.20;92.00;;;;;;7383772;19;20231;-75
2023/08/08 05:08:51;;;;;;;;;;;19.20;91.90;;;;;;7381717;19;19915;-75
2023/08/08 05:11:22;;;;;;;;;;;19.30;91.80;;;;;;7404679;19;19928;-75
2023/08/08 05:13:51;;;;;;;;;;;19.30;91.90;;;;;;7382479;19;20136;-75
2023/08/08 05:16:19;;;;;;;;;;;19.30;91.90;;;;;;7382714;19;19911;-75
2023/08/08 05:18:47;;;;;;;;;;;19.30;92.00;;;;;;7382592;19;20551;-75
2023/08/08 05:21:16;;;;;;;;;;;19.30;92.00;;;;;;7383214;19;19919;-75
2023/08/08 05:23:44;;;;;;;;;;;19.30;92.00;;;;;;7382727;19;19924;-75
2023/08/08 05:26:13;;;;;;;;;;;19.30;92.00;;;;;;7403265;19;19911;-75
2023/08/08 05:28:44;;;;;;;;;;;19.30;92.00;;;;;;7380344;19;19974;-75
2023/08/08 05:31:13;;;;;;;;;;;19.40;92.00;;;;;;7382153;19;19928;-74
2023/08/08 05:33:41;;;;;;;;;;;19.30;92.00;;;;;;7382409;19;19968;-76
2023/08/08 05:36:10;;;;;;;;;;;19.30;92.10;;;;;;7382676;19;19919;-75
2023/08/08 05:38:38;;;;;;;;;;;19.40;92.20;;;;;;7382436;19;19907;-75
2023/08/08 05:41:07;;;;;;;;;;;19.30;92.10;;;;;;7403436;19;19919;-76
2023/08/08 05:43:36;;;;;;;;;;;19.30;92.20;;;;;;7381338;19;19910;-76
2023/08/08 05:46:07;;;;;;;;;;;19.30;92.30;;;;;;7381660;19;19915;-75
2023/08/08 05:48:35;;;;;;;;;;;19.30;92.30;;;;;;7382545;19;19932;-75
2023/08/08 05:51:05;;;;;;;;;;;19.40;92.40;;;;;;7380941;19;19974;-74
2023/08/08 05:53:33;;;;;;;;;;;19.40;92.40;;;;;;7381810;19;19923;-76
2023/08/08 05:56:02;;;;;;;;;;;19.40;92.40;;;;;;7403032;19;19911;-75
2023/08/08 05:58:30;;;;;;;;;;;19.50;92.40;;;;;;7380916;19;19946;-74
2023/08/08 06:00:59;;;;;;;;;;;19.60;92.30;;;;;;7381710;19;19927;-76
2023/08/08 06:03:30;;;;;;;;;;;19.60;92.30;;;;;;7382354;19;20005;-76
2023/08/08 06:06:00;;;;;;;;;;;19.70;92.30;;;;;;7381730;19;20251;-76
2023/08/08 06:08:28;;;;;;;;;;;19.70;92.40;;;;;;7400279;19;19919;-76
2023/08/08 06:10:56;;;;;;;;;;;19.70;92.40;;;;;;7380997;19;19930;-75
2023/08/08 06:13:27;;;;;;;;;;;19.80;92.40;;;;;;7381105;19;19919;-75
2023/08/08 06:15:55;;;;;;;;;;;19.80;92.40;;;;;;7381444;19;19917;-76
2023/08/08 06:18:24;;;;;;;;;;;19.90;92.20;;;;;;7380975;19;19920;-75
2023/08/08 06:20:55;;;;;;;;;;;19.90;92.10;;;;;;7381468;19;20164;-75
2023/08/08 06:23:24;;;;;;;;;;;20.00;92.00;;;;;;7402646;19;19938;-74
2023/08/08 06:25:53;;;;;;;;;;;20.00;91.90;;;;;;7380398;19;19923;-75
2023/08/08 06:28:21;;;;;;;;;;;20.10;91.40;;;;;;7382532;19;19924;-75
2023/08/08 06:30:50;;;;;;;;;;;20.10;91.30;;;;;;7384188;19;19915;-74
2023/08/08 06:33:18;;;;;;;;;;;20.10;91.30;;;;;;7384100;19;19931;-75
2023/08/08 06:35:47;;;;;;;;;;;20.10;91.40;;;;;;7385261;19;19934;-75
2023/08/08 06:38:18;;;;;;;;;;;20.20;91.50;;;;;;7408602;19;19910;-75
2023/08/08 06:40:46;;;;;;;;;;;20.20;91.50;;;;;;7381195;19;19910;-74
2023/08/08 06:43:15;;;;;;;;;;;20.30;91.50;;;;;;7380822;19;19903;-75
2023/08/08 06:45:43;;;;;;;;;;;20.30;91.50;;;;;;7381032;19;19920;-74
2023/08/08 06:48:12;;;;;;;;;;;20.30;91.50;;;;;;7380636;19;19927;-74
2023/08/08 06:50:40;;;;;;;;;;;20.40;91.50;;;;;;7380244;19;19920;-75
2023/08/08 06:53:09;;;;;;;;;;;20.50;91.30;;;;;;7401624;19;19923;-75
2023/08/08 06:55:40;;;;;;;;;;;20.50;91.30;;;;;;7379301;19;20267;-75
2023/08/08 06:58:08;;;;;;;;;;;20.60;90.80;;;;;;7379334;19;20267;-74
2023/08/08 07:00:37;;;;;;;;;;;20.50;90.50;;;;;;7380198;19;19903;-74
2023/08/08 07:03:06;;;;;;;;;;;20.60;90.50;;;;;;7379990;19;19911;-74
2023/08/08 07:05:34;;;;;;;;;;;20.60;90.30;;;;;;7380004;19;19911;-73
2023/08/08 07:08:03;;;;;;;;;;;20.60;90.30;;;;;;7400267;19;19915;-76
2023/08/08 07:10:32;;;;;;;;;;;20.60;90.40;;;;;;7378676;19;19923;-76
2023/08/08 07:13:08;;;;;;;;;;;20.50;90.30;;;;;;7381197;19;19930;-79
2023/08/08 07:15:37;;;;;;;;;;;20.50;90.40;;;;;;7383790;19;19915;-77
2023/08/08 07:18:05;;;;;;;;;;;20.50;90.50;;;;;;7382390;19;19911;-79
2023/08/08 07:20:34;;;;;;;;;;;20.40;90.50;;;;;;7386605;19;19919;-78
2023/08/08 07:23:02;;;;;;;;;;;20.40;90.60;;;;;;7408044;19;20234;-78
2023/08/08 07:25:31;;;;;;;;;;;20.40;90.50;;;;;;7389451;19;19953;-78
2023/08/08 07:27:59;;;;;;;;;;;20.50;90.40;;;;;;7390154;19;19911;-78
2023/08/08 07:30:30;;;;;;;;;;;20.60;90.20;;;;;;7386869;19;19928;-75
2023/08/08 07:32:59;;;;;;;;;;;20.60;90.00;;;;;;7385377;19;19930;-76
2023/08/08 07:35:27;;;;;;;;;;;20.70;88.60;;;;;;7407893;19;19914;-75
2023/08/08 07:37:56;;;;;;;;;;;20.70;87.70;;;;;;7385884;19;19927;-74
2023/08/08 07:40:24;;;;;;;;;;;20.70;86.60;;;;;;7387686;19;19907;-74
2023/08/08 07:42:52;;;;;;;;;;;20.70;86.60;;;;;;7385041;19;19971;-73
2023/08/08 07:45:21;;;;;;;;;;;20.70;85.80;;;;;;7386197;19;19924;-78
2023/08/08 07:47:52;;;;;;;;;;;20.70;84.60;;;;;;7388930;19;19919;-78
2023/08/08 07:50:21;;;;;;;;;;;20.70;84.20;;;;;;7411991;19;20107;-77
2023/08/08 07:52:49;;;;;;;;;;;20.80;83.40;;;;;;7390059;19;20166;-80
2023/08/08 07:55:18;;;;;;;;;;;20.70;81.60;;;;;;7389907;19;20337;-78
2023/08/08 07:57:46;;;;;;;;;;;20.70;81.70;;;;;;7388726;19;19911;-78
2023/08/08 08:00:18;;;;;;;;;;;20.80;82.20;;;;;;7390634;19;19914;-78
2023/08/08 08:02:47;;;;;;;;;;;20.80;83.20;;;;;;7388184;19;19923;-78
2023/08/08 08:05:19;;;;;;;;;;;20.80;82.80;;;;;;7406665;19;19910;-78
2023/08/08 08:07:48;;;;;;;;;;;20.80;83.00;;;;;;7387067;19;19906;-76
2023/08/08 08:10:16;;;;;;;;;;;20.90;82.10;;;;;;7383984;19;20212;-77
2023/08/08 08:12:45;;;;;;;;;;;20.90;82.40;;;;;;7386398;19;19911;-77
2023/08/08 08:15:13;;;;;;;;;;;21.00;81.90;;;;;;7385220;19;19911;-75
2023/08/08 08:17:42;;;;;;;;;;;21.00;80.40;;;;;;7384627;19;19931;-74
2023/08/08 08:20:12;;;;;;;;;;;21.10;80.10;;;;;;7403727;19;19950;-75
2023/08/08 08:22:43;;;;;;;;;;;21.10;79.20;;;;;;7383951;19;20291;-75
2023/08/08 08:25:11;;;;;;;;;;;21.10;79.00;;;;;;7384894;19;19927;-76
2023/08/08 08:27:40;;;;;;;;;;;21.10;79.00;;;;;;7382845;19;19923;-77
2023/08/08 08:30:09;;;;;;;;;;;21.00;78.60;;;;;;7383273;19;19998;-75
2023/08/08 08:32:38;;;;;;;;;;;20.90;77.10;;;;;;7382525;19;19930;-76
2023/08/08 08:35:07;;;;;;;;;;;21.00;76.20;;;;;;7406151;19;19919;-76
2023/08/08 08:37:36;;;;;;;;;;;21.00;75.90;;;;;;7383708;19;20238;-77
2023/08/08 08:40:08;;;;;;;;;;;21.00;76.30;;;;;;7384065;19;20139;-76
2023/08/08 08:42:37;;;;;;;;;;;21.00;76.80;;;;;;7382581;19;19913;-76
2023/08/08 08:45:07;;;;;;;;;;;21.10;77.70;;;;;;7391682;19;19907;-78
2023/08/08 08:47:38;;;;;;;;;;;21.20;78.00;;;;;;7396485;19;19938;-79
2023/08/08 08:50:08;;;;;;;;;;;21.20;78.20;;;;;;7419580;19;19947;-78
2023/08/08 08:56:00;;;;;;;;;;;21.30;77.70;;;;;;7400079;19;19911;-79
2023/08/08 08:58:32;;;;;;;;;;;21.30;78.50;;;;;;7395180;19;19910;-81
2023/08/08 09:01:00;;;;;;;;;;;21.20;79.50;;;;;;7393526;19;19943;-81
2023/08/08 09:03:29;;;;;;;;;;;21.10;79.70;;;;;;7393828;19;20018;-79
2023/08/08 09:05:58;;;;;;;;;;;21.00;80.30;;;;;;7381870;19;20115;-77
2023/08/08 09:08:27;;;;;;;;;;;21.10;80.20;;;;;;7403448;19;19921;-76
2023/08/08 09:10:56;;;;;;;;;;;21.00;79.80;;;;;;7382996;19;19914;-77
2023/08/08 09:13:28;;;;;;;;;;;21.10;79.90;;;;;;7383024;19;19910;-76
2023/08/08 09:15:56;;;;;;;;;;;21.20;79.80;;;;;;7383134;19;19910;-75
2023/08/08 09:18:26;;;;;;;;;;;21.20;79.80;;;;;;7384125;19;19907;-77
2023/08/08 09:20:54;;;;;;;;;;;21.30;79.50;;;;;;7384364;19;19910;-77
2023/08/08 09:23:25;;;;;;;;;;;21.30;79.70;;;;;;7403030;19;19910;-77
2023/08/08 09:25:53;;;;;;;;;;;21.40;80.40;;;;;;7379823;19;19910;-75
2023/08/08 09:28:23;;;;;;;;;;;21.20;79.70;;;;;;7383112;19;20238;-79
2023/08/08 09:30:54;;;;;;;;;;;21.30;79.70;;;;;;7383057;19;19979;-77
2023/08/08 09:33:22;;;;;;;;;;;21.30;80.00;;;;;;7381633;19;19932;-76
2023/08/08 09:35:51;;;;;;;;;;;21.40;79.20;;;;;;7381044;19;19944;-76
2023/08/08 09:38:19;;;;;;;;;;;21.50;79.70;;;;;;7405954;19;19906;-76
2023/08/08 09:40:48;;;;;;;;;;;21.50;79.30;;;;;;7386446;19;20305;-78
2023/08/08 09:43:17;;;;;;;;;;;21.50;80.10;;;;;;7383753;19;19934;-76
2023/08/08 09:45:47;;;;;;;;;;;21.50;79.60;;;;;;7381603;19;20012;-76
2023/08/08 09:48:18;;;;;;;;;;;21.50;79.90;;;;;;7382514;19;20252;-76
2023/08/08 09:50:47;;;;;;;;;;;21.40;80.00;;;;;;7380404;19;19938;-76
2023/08/08 09:53:16;;;;;;;;;;;21.40;80.00;;;;;;7401836;19;20005;-77
2023/08/08 09:55:48;;;;;;;;;;;21.50;80.00;;;;;;7381747;19;20123;-76
2023/08/08 09:58:16;;;;;;;;;;;21.60;80.70;;;;;;7381958;19;19914;-76
2023/08/08 10:00:45;;;;;;;;;;;21.70;80.80;;;;;;7381833;19;20119;-76
2023/08/08 10:03:13;;;;;;;;;;;21.70;81.00;;;;;;7381778;19;19915;-76
2023/08/08 10:05:45;;;;;;;;;;;21.80;80.50;;;;;;7381922;19;20132;-75
2023/08/08 10:08:13;;;;;;;;;;;21.90;79.80;;;;;;7403182;19;19919;-77
2023/08/08 10:10:42;;;;;;;;;;;21.80;80.50;;;;;;7379028;19;19914;-77
2023/08/08 10:13:10;;;;;;;;;;;21.90;80.10;;;;;;7380502;19;19915;-75
2023/08/08 10:15:42;;;;;;;;;;;21.90;79.70;;;;;;7380555;19;19911;-77
2023/08/08 10:18:10;;;;;;;;;;;22.00;79.40;;;;;;7381225;19;19910;-76
2023/08/08 10:20:42;;;;;;;;;;;22.10;79.30;;;;;;7382236;19;19935;-78
2023/08/08 10:23:13;;;;;;;;;;;22.00;78.40;;;;;;7405118;19;20001;-76
2023/08/08 10:25:46;;;;;;;;;;;22.10;79.40;;;;;;7380457;19;20267;-76
2023/08/08 10:28:18;;;;;;;;;;;22.10;79.60;;;;;;7383310;19;20259;-77
2023/08/08 10:30:47;;;;;;;;;;;22.20;79.40;;;;;;7379742;19;19911;-76
2023/08/08 10:33:19;;;;;;;;;;;22.30;78.60;;;;;;7380202;19;20234;-77
2023/08/08 10:35:56;;;;;;;;;;;22.40;78.80;;;;;;7382256;19;19915;-77
2023/08/08 10:38:28;;;;;;;;;;;22.40;77.70;;;;;;7399995;19;19907;-76
2023/08/08 10:41:00;;;;;;;;;;;22.40;78.10;;;;;;7380783;19;20006;-77
2023/08/08 10:43:29;;;;;;;;;;;22.50;77.10;;;;;;7381249;19;20305;-77
2023/08/08 10:46:02;;;;;;;;;;;22.50;77.10;;;;;;7380694;19;19978;-77
2023/08/08 10:48:30;;;;;;;;;;;22.60;76.50;;;;;;7381233;19;19907;-78
2023/08/08 10:51:00;;;;;;;;;;;22.70;76.90;;;;;;7382526;19;19913;-78
2023/08/08 10:53:31;;;;;;;;;;;22.80;76.50;;;;;;7402214;19;19918;-77
2023/08/08 10:56:04;;;;;;;;;;;22.80;76.90;;;;;;7379517;19;20148;-76
2023/08/08 10:58:39;;;;;;;;;;;22.90;76.20;;;;;;7378850;19;19962;-77
2023/08/08 11:01:09;;;;;;;;;;;22.80;76.20;;;;;;7379533;19;19911;-76
2023/08/08 11:03:38;;;;;;;;;;;22.80;75.10;;;;;;7379586;19;19911;-78
2023/08/08 11:06:08;;;;;;;;;;;22.70;75.30;;;;;;7378627;19;19903;-76
2023/08/08 11:08:40;;;;;;;;;;;22.80;75.20;;;;;;7380213;19;20144;-76
2023/08/08 11:11:08;;;;;;;;;;;22.70;74.80;;;;;;7400354;19;19914;-77
2023/08/08 11:13:37;;;;;;;;;;;22.60;75.20;;;;;;7378757;19;19939;-77
2023/08/08 11:16:05;;;;;;;;;;;22.60;75.70;;;;;;7379633;19;19926;-76
2023/08/08 11:18:36;;;;;;;;;;;22.70;76.20;;;;;;7377308;19;19911;-76
2023/08/08 11:21:11;;;;;;;;;;;22.80;76.20;;;;;;7379066;19;19903;-74
2023/08/08 11:23:47;;;;;;;;;;;23.00;74.80;;;;;;7376079;19;19915;-76
2023/08/08 11:26:15;;;;;;;;;;;23.20;72.60;;;;;;7395735;19;20009;-77
2023/08/08 11:28:51;;;;;;;;;;;23.20;73.00;;;;;;7369528;19;19921;-76
2023/08/08 11:31:20;;;;;;;;;;;23.20;72.60;;;;;;7371422;19;20235;-77
2023/08/08 11:33:49;;;;;;;;;;;23.10;73.30;;;;;;7377178;19;20422;-75
2023/08/08 11:36:18;;;;;;;;;;;23.10;73.90;;;;;;7374620;19;19907;-75
2023/08/08 11:38:49;;;;;;;;;;;23.20;73.80;;;;;;7377454;19;20266;-73
2023/08/08 11:41:18;;;;;;;;;;;23.30;73.90;;;;;;7397210;19;19922;-75
2023/08/08 11:43:47;;;;;;;;;;;23.30;73.70;;;;;;7384834;19;19907;-76
2023/08/08 11:46:16;;;;;;;;;;;23.40;73.40;;;;;;7377807;19;19903;-76
2023/08/08 11:48:44;;;;;;;;;;;23.50;73.60;;;;;;7378813;19;19955;-74
2023/08/08 11:51:12;;;;;;;;;;;23.50;72.70;;;;;;7377991;19;19931;-74
2023/08/08 11:53:50;;;;;;;;;;;23.50;70.90;;;;;;7377000;19;19923;-74
2023/08/08 11:56:24;;;;;;;;;;;23.50;71.60;;;;;;7399982;19;20127;-78
2023/08/08 11:58:53;;;;;;;;;;;23.40;70.90;;;;;;7380699;19;19950;-79
2023/08/08 12:01:22;;;;;;;;;;;23.40;71.90;;;;;;7380771;19;20001;-79
2023/08/08 12:03:52;;;;;;;;;;;23.40;72.80;;;;;;7377080;19;20187;-80
2023/08/08 12:06:21;;;;;;;;;;;23.30;71.10;;;;;;7377744;19;19923;-78
2023/08/08 12:08:50;;;;;;;;;;;23.40;71.50;;;;;;7379486;19;20160;-74
2023/08/08 12:11:18;;;;;;;;;;;23.50;71.30;;;;;;7402452;19;19911;-75
2023/08/08 12:13:49;;;;;;;;;;;23.60;71.90;;;;;;7383505;19;19928;-74
2023/08/08 12:16:18;;;;;;;;;;;23.60;70.40;;;;;;7384720;19;19932;-74
2023/08/08 12:18:47;;;;;;;;;;;23.70;69.80;;;;;;7381414;19;19946;-73
2023/08/08 12:21:15;;;;;;;;;;;23.60;70.10;;;;;;7380261;19;20293;-74
2023/08/08 12:23:43;;;;;;;;;;;23.60;71.40;;;;;;7384053;19;19926;-73
2023/08/08 12:26:12;;;;;;;;;;;23.60;71.20;;;;;;7403015;19;19922;-74
2023/08/08 12:28:40;;;;;;;;;;;23.60;70.60;;;;;;7379810;19;20295;-74
2023/08/08 12:31:12;;;;;;;;;;;23.80;71.60;;;;;;7377200;19;19963;-74
2023/08/08 12:33:40;;;;;;;;;;;23.90;71.10;;;;;;7383350;19;19909;-73
2023/08/08 12:36:08;;;;;;;;;;;24.00;70.80;;;;;;7382008;19;19956;-73
2023/08/08 12:38:37;;;;;;;;;;;24.10;70.40;;;;;;7380349;19;20124;-75
2023/08/08 12:41:06;;;;;;;;;;;24.10;71.40;;;;;;7403634;19;19907;-74
2023/08/08 12:43:35;;;;;;;;;;;24.20;70.10;;;;;;7378552;19;19923;-73
2023/08/08 12:46:03;;;;;;;;;;;24.30;70.10;;;;;;7376908;19;19907;-74
2023/08/08 12:48:35;;;;;;;;;;;24.30;69.90;;;;;;7381154;19;24045;-75
2023/08/08 12:51:04;;;;;;;;;;;24.30;70.40;;;;;;7384738;19;19959;-74
2023/08/08 12:53:33;;;;;;;;;;;24.40;70.20;;;;;;7380795;19;19913;-74
2023/08/08 12:56:02;;;;;;;;;;;24.40;68.40;;;;;;7404053;19;19919;-73
2023/08/08 12:58:37;;;;;;;;;;;24.50;68.30;;;;;;7381908;19;19916;-79
2023/08/08 13:01:08;;;;;;;;;;;24.60;69.20;;;;;;7383749;19;19938;-79
2023/08/08 13:03:39;;;;;;;;;;;24.60;69.10;;;;;;7384225;19;19914;-79
2023/08/08 13:06:08;;;;;;;;;;;24.70;68.50;;;;;;7387710;19;19931;-78
2023/08/08 13:11:41;;;;;;;;;;;24.50;69.10;;;;;;7416334;19;19902;-83
2023/08/08 13:20:22;;;;;;;;;;;24.70;67.90;;;;;;7426726;19;19903;-82
2023/08/08 13:22:54;;;;;;;;;;;24.80;67.30;;;;;;7398586;19;19938;-78
2023/08/08 13:25:22;;;;;;;;;;;25.00;67.10;;;;;;7385604;19;19911;-78
2023/08/08 13:27:51;;;;;;;;;;;25.00;67.50;;;;;;7379370;19;19935;-79
2023/08/08 13:30:21;;;;;;;;;;;25.10;67.80;;;;;;7380889;19;20153;-78
2023/08/08 13:32:50;;;;;;;;;;;25.10;67.70;;;;;;7382303;19;19911;-77
2023/08/08 13:35:18;;;;;;;;;;;25.20;66.50;;;;;;7400892;19;20135;-79
2023/08/08 13:37:50;;;;;;;;;;;25.10;65.70;;;;;;7381825;19;19953;-78
2023/08/08 13:40:21;;;;;;;;;;;25.10;65.80;;;;;;7383683;19;19921;-81
2023/08/08 13:42:53;;;;;;;;;;;25.10;64.00;;;;;;7384438;19;19907;-79
2023/08/08 13:45:24;;;;;;;;;;;25.10;64.10;;;;;;7382213;19;19923;-78
2023/08/08 13:47:58;;;;;;;;;;;25.10;63.70;;;;;;7377268;19;19925;-78
2023/08/08 13:50:27;;;;;;;;;;;25.10;63.40;;;;;;7400153;19;19975;-79
2023/08/08 13:53:16;;;;;;;;;;;25.30;63.50;;;;;;7384560;19;19967;-80
2023/08/08 13:55:47;;;;;;;;;;;25.40;62.80;;;;;;7378587;19;19927;-77
2023/08/08 13:58:15;;;;;;;;;;;25.50;62.20;;;;;;7383298;19;20274;-75
2023/08/08 14:00:44;;;;;;;;;;;25.50;63.10;;;;;;7380550;19;19934;-77
2023/08/08 14:03:13;;;;;;;;;;;25.70;63.40;;;;;;7383265;19;19923;-78
2023/08/08 14:05:41;;;;;;;;;;;25.70;61.80;;;;;;7379341;19;19906;-77
2023/08/08 14:08:11;;;;;;;;;;;25.90;61.40;;;;;;7399177;19;19907;-77
2023/08/08 14:10:44;;;;;;;;;;;26.10;60.80;;;;;;7380782;19;19907;-77
2023/08/08 14:13:15;;;;;;;;;;;26.20;60.80;;;;;;7379762;19;19917;-75
2023/08/08 14:15:46;;;;;;;;;;;26.10;60.50;;;;;;7377280;19;19963;-78
2023/08/08 14:18:15;;;;;;;;;;;26.00;60.80;;;;;;7383151;19;19915;-77
2023/08/08 14:20:44;;;;;;;;;;;25.90;60.00;;;;;;7375304;19;19935;-79
2023/08/08 14:23:12;;;;;;;;;;;25.80;60.50;;;;;;7398318;19;19951;-80
2023/08/08 14:25:43;;;;;;;;;;;25.70;61.10;;;;;;7375759;19;19910;-79
2023/08/08 14:28:14;;;;;;;;;;;25.70;61.60;;;;;;7377689;19;19946;-79
2023/08/08 14:30:49;;;;;;;;;;;25.70;61.00;;;;;;7383171;19;19915;-78
2023/08/08 14:33:20;;;;;;;;;;;25.70;61.30;;;;;;7379174;19;19910;-78
2023/08/08 14:35:49;;;;;;;;;;;25.60;61.90;;;;;;7377660;19;24047;-76
2023/08/08 14:38:18;;;;;;;;;;;25.50;62.20;;;;;;7401170;19;19920;-78
2023/08/08 14:40:46;;;;;;;;;;;25.60;62.50;;;;;;7374815;19;19907;-78
2023/08/08 14:43:15;;;;;;;;;;;25.50;62.10;;;;;;7377074;19;19911;-78
2023/08/08 14:45:49;;;;;;;;;;;25.50;63.10;;;;;;7376987;19;19915;-77